Latest Weather Observations for ACT PCS1

IDN60901

Issued at 7:41 pm EST Thursday 30 June 2022 (issued every 10 minutes, with the page automatically refreshed every 10 minutes)

About weather observations | Map of Canberra area stations | Latest observations for Canberra area | Other Formats
Station Details ID: 250104 Name: ACT PCS1 Lat: -35.41 Lon: 148.90 Height: 1338.0 m

Portable automatic weather stations (PAWS) are operated by other organisations, such as Fire and Emergency Services, and are included here by agreement. Portable stations may be deployed to a location for a short period and their location may be subject to change without notice. Wind observations from these stations are provided from heights of either three (3) or ten (10) metres above ground level (AGL).

Data from the previous 72 hours. | See also: Recent months for locations in Aust Capital Territory
Date/Time
EST
Temp
°C
App
Temp
°C
Dew
Point
°C
Rel
Hum
%
Delta-T
°C
Wind Press
QNH
hPa
Press
MSL
hPa
Rain since
9am
mm
Dir  Spd
km/h
Gust
km/h
Spd
kts
Gust
kts
30/07:30pm 3.1 0.1 2.1 93 0.4 E 7 9 4 5 - - 0.0
30/07:20pm 3.4 0.5 1.7 89 0.7 E 6 7 3 4 - - 0.0
30/07:10pm 3.4 0.5 1.4 87 0.8 E 6 7 3 4 - - 0.0
30/07:00pm 3.5 0.6 1.5 87 0.9 E 6 7 3 4 - - 0.0
30/06:50pm 3.5 0.6 1.5 87 0.9 E 6 6 3 3 - - 0.0
30/06:40pm 3.5 0.6 1.2 85 1.0 E 6 6 3 3 - - 0.0
30/06:30pm 3.7 1.1 1.1 83 1.1 E 4 6 2 3 - - 0.0
30/06:20pm 3.9 1.0 1.2 82 1.1 E 6 7 3 4 - - 0.0
30/06:10pm 4.1 1.1 1.1 81 1.3 E 6 6 3 3 - - 0.0
30/06:00pm 4.2 1.7 1.3 81 1.2 E 4 6 2 3 - - 0.0
30/05:50pm 4.3 1.7 0.9 78 1.4 E 4 4 2 2 - - 0.0
30/05:40pm 4.2 1.9 0.7 78 1.5 ESE 2 4 1 2 - - 0.0
30/05:30pm 4.0 1.7 0.4 77 1.5 SW 2 4 1 2 - - 0.0
30/05:20pm 3.9 1.5 -0.1 75 1.6 WSW 2 4 1 2 - - 0.0
30/05:10pm 3.9 1.5 -0.2 74 1.7 WSW 2 4 1 2 - - 0.0
30/05:00pm 4.0 1.7 0.5 78 1.5 W 2 4 1 2 - - 0.0
30/04:50pm 4.2 2.4 1.3 81 1.2 CALM 0 2 0 1 - - 0.0
30/04:40pm 4.3 2.0 0.2 75 1.7 NW 2 4 1 2 - - 0.0
30/04:30pm 4.4 1.7 0.5 76 1.6 E 4 6 2 3 - - 0.0
30/04:20pm 4.8 1.8 0.9 76 1.7 E 6 7 3 4 - - 0.0
30/04:10pm 4.9 1.8 1.3 77 1.5 E 7 7 4 4 - - 0.0
30/04:00pm 4.9 2.0 1.5 79 1.5 E 6 7 3 4 - - 0.0
30/03:50pm 5.1 2.5 0.8 74 1.8 E 4 6 2 3 - - 0.0
30/03:40pm 5.3 2.6 0.4 70 2.1 ENE 4 4 2 2 - - 0.0
30/03:30pm 5.6 2.9 0.3 69 2.2 - 4 4 2 2 - - 0.0
30/03:20pm 6.0 3.8 0.9 70 2.2 NNW 2 4 1 2 - - 0.0
30/03:10pm 6.2 4.0 1.0 69 2.2 E 2 4 1 2 - - 0.0
30/03:00pm 6.4 3.6 -0.2 62 2.8 ENE 4 6 2 3 - - 0.0
30/02:50pm 6.8 4.2 0.9 66 2.6 ENE 4 4 2 2 - - 0.0
30/02:40pm 6.6 4.0 1.1 68 2.4 ENE 4 6 2 3 - - 0.0
30/02:30pm 6.6 4.1 1.6 70 2.2 ENE 4 6 2 3 - - 0.0
30/02:20pm 6.4 4.0 1.9 73 2.0 E 4 6 2 3 - - 0.0
30/02:10pm 6.6 4.0 1.0 67 2.4 E 4 4 2 2 - - 0.0
30/02:00pm 6.8 4.3 1.5 69 2.3 E 4 6 2 3 - - 0.0
30/01:50pm 7.1 4.6 1.8 69 2.4 E 4 6 2 3 - - 0.0
30/01:40pm 7.6 4.8 2.1 68 2.5 ENE 6 7 3 4 - - 0.0
30/01:30pm 8.5 6.2 2.9 68 2.6 E 4 6 2 3 - - 0.0
30/01:20pm 9.0 6.4 1.1 57 3.5 ENE 4 4 2 2 - - 0.0
30/01:10pm 8.4 6.3 1.4 61 3.1 E 2 4 1 2 - - 0.0
30/01:00pm 7.8 5.6 1.3 63 2.9 E 2 4 1 2 - - 0.0
30/12:50pm 7.7 5.3 -0.4 56 3.4 ESE 2 4 1 2 - - 0.0
30/12:40pm 7.8 5.9 2.6 69 2.4 E 2 4 1 2 - - 0.0
30/12:30pm 7.7 5.3 2.2 68 2.5 ENE 4 4 2 2 - - 0.0
30/12:20pm 7.6 5.2 2.1 68 2.5 ENE 4 6 2 3 - - 0.0
30/12:10pm 7.7 5.5 3.3 74 2.0 NE 4 4 2 2 - - 0.0
30/12:00pm 7.8 5.4 1.9 66 2.6 ENE 4 6 2 3 - - 0.0
30/11:50am 7.7 4.9 -0.1 58 3.3 ENE 4 6 2 3 - - 0.0
30/11:40am 7.7 4.8 -1.2 53 3.7 E 4 6 2 3 - - 0.0
30/11:30am 7.9 5.6 0.6 60 3.2 E 2 4 1 2 - - 0.0
30/11:20am 8.1 5.5 0.7 59 3.2 NE 4 6 2 3 - - 0.0
30/11:10am 8.2 5.6 1.2 61 3.1 E 4 4 2 2 - - 0.0
30/11:00am 7.7 5.1 1.0 62 2.9 ENE 4 4 2 2 - - 0.0
30/10:50am 6.8 4.2 1.0 66 2.5 ENE 4 4 2 2 - - 0.0
30/10:40am 5.9 3.4 1.4 73 2.0 ENE 4 6 2 3 - - 0.0
30/10:30am 6.0 3.4 0.7 69 2.3 ENE 4 4 2 2 - - 0.0
30/10:20am 6.0 3.5 1.3 72 2.0 E 4 6 2 3 - - 0.0
30/10:10am 5.6 3.0 0.8 71 2.1 ENE 4 6 2 3 - - 0.0
30/10:00am 5.7 3.0 0.1 67 2.4 ENE 4 6 2 3 - - 0.0
30/09:50am 5.0 2.4 0.7 74 1.8 ENE 4 6 2 3 - - 0.0
30/09:40am 4.6 1.9 0.6 75 1.7 E 4 4 2 2 - - 0.0
30/09:30am 4.5 2.2 0.6 76 1.6 E 2 4 1 2 - - 0.0
30/09:20am 4.3 2.5 1.1 80 1.4 CALM 0 2 0 1 - - 0.0
30/09:10am 4.3 1.6 0.6 77 1.6 E 4 4 2 2 - - 0.0
30/09:00am 4.2 1.7 1.8 84 1.0 E 4 6 2 3 - - 0.0
30/08:50am 4.4 2.1 0.5 76 1.6 ENE 2 4 1 2 - - 0.0
30/08:40am 4.3 1.7 0.9 78 1.4 E 4 6 2 3 - - 0.0
30/08:30am 3.5 1.6 0.5 81 1.2 CALM 0 4 0 2 - - 0.0
30/08:20am 2.8 1.0 1.1 88 0.7 CALM 0 2 0 1 - - 0.0
30/08:10am 2.5 0.7 1.1 90 0.6 CALM 0 2 0 1 - - 0.0
30/08:00am 2.3 0.4 0.8 90 0.6 CALM 0 2 0 1 - - 0.0
30/07:50am 2.3 -0.4 0.6 88 0.7 ESE 4 6 2 3 - - 0.0
30/07:40am 2.2 0.2 -0.2 84 1.0 CALM 0 4 0 2 - - 0.0
30/07:30am 1.9 -0.2 -1.1 80 1.2 CALM 0 2 0 1 - - 0.0
30/07:20am 1.7 -0.2 0.4 91 0.5 CALM 0 2 0 1 - - 0.0
30/07:10am 1.8 -0.1 0.5 91 0.5 CALM 0 0 0 0 - - 0.0
30/07:00am 1.9 0.0 0.4 90 0.6 CALM 0 0 0 0 - - 0.0
30/06:50am 1.8 -0.2 -0.1 87 0.8 CALM 0 2 0 1 - - 0.0
30/06:40am 1.8 -0.2 0.2 89 0.6 CALM 0 0 0 0 - - 0.0
30/06:30am 1.8 -0.2 0.2 89 0.6 CALM 0 2 0 1 - - 0.0
30/06:20am 1.9 -0.1 -0.1 87 0.8 CALM 0 2 0 1 - - 0.0
30/06:10am 2.0 -0.5 -0.7 82 1.1 NW 2 4 1 2 - - 0.0
30/06:00am 2.0 -0.6 0.7 91 0.5 WSW 4 6 2 3 - - 0.0
30/05:50am 2.1 -0.6 0.5 89 0.7 SW 4 4 2 2 - - 0.0
30/05:40am 2.1 -0.3 -0.3 84 1.0 SW 2 6 1 3 - - 0.0
30/05:30am 2.1 0.1 -0.1 85 0.9 CALM 0 2 0 1 - - 0.0
30/05:20am 2.2 0.2 -0.4 83 1.0 CALM 0 2 0 1 - - 0.0
30/05:10am 2.3 -0.1 0.0 85 0.9 E 2 4 1 2 - - 0.0
30/05:00am 2.4 -0.4 -0.3 82 1.1 E 4 6 2 3 - - 0.0
30/04:50am 2.2 -0.2 -0.4 83 1.0 NE 2 4 1 2 - - 0.0
30/04:40am 2.1 -0.7 -0.5 83 1.0 WSW 4 4 2 2 - - 0.0
30/04:30am 2.1 -0.6 0.3 88 0.7 WSW 4 6 2 3 - - 0.0
30/04:20am 2.1 -0.9 0.8 91 0.5 SW 6 7 3 4 - - 0.0
30/04:10am 2.1 -0.9 1.1 93 0.4 SW 6 7 3 4 - - 0.0
30/04:00am 2.1 -0.9 1.0 92 0.5 SW 6 7 3 4 - - 0.0
30/03:50am 2.1 -0.9 1.0 92 0.5 SW 6 7 3 4 - - 0.0
30/03:40am 2.1 -0.9 0.9 92 0.5 SW 6 7 3 4 - - 0.0
30/03:30am 2.1 -0.9 1.0 92 0.5 SW 6 6 3 3 - - 0.0
30/03:20am 2.2 -0.8 1.0 92 0.5 SSW 6 7 3 4 - - 0.0
30/03:10am 2.1 -1.1 1.0 92 0.5 SW 7 9 4 5 - - 0.0
30/03:00am 2.0 -1.2 0.9 92 0.5 SW 7 9 4 5 - - 0.0
30/02:50am 2.1 -1.1 0.9 92 0.5 SW 7 7 4 4 - - 0.0
30/02:40am 2.2 -1.0 0.7 90 0.6 SW 7 7 4 4 - - 0.0
30/02:30am 2.4 -0.6 0.6 88 0.7 SW 6 7 3 4 - - 0.0
30/02:20am 2.4 -0.8 0.6 88 0.7 SW 7 9 4 5 - - 0.0
30/02:10am 2.4 -0.8 0.9 90 0.6 SW 7 9 4 5 - - 0.0
30/02:00am 2.4 -0.8 0.9 90 0.6 SW 7 9 4 5 - - 0.0
30/01:50am 2.4 -0.8 1.0 90 0.6 SW 7 9 4 5 - - 0.0
30/01:40am 2.4 -0.8 1.0 90 0.6 SW 7 9 4 5 - - 0.0
30/01:30am 2.5 -0.6 1.3 92 0.5 SW 7 11 4 6 - - 0.0
30/01:20am 2.6 -1.3 1.4 92 0.5 SW 11 13 6 7 - - 0.0
30/01:10am 2.6 -1.3 1.4 92 0.5 SW 11 13 6 7 - - 0.0
30/01:00am 2.6 -0.9 1.5 92 0.5 SW 9 13 5 7 - - 0.0
30/12:50am 2.6 -1.7 1.3 91 0.5 WSW 13 15 7 8 - - 0.0
30/12:40am 2.6 -1.3 1.3 91 0.5 WSW 11 11 6 6 - - 0.0
30/12:30am 2.6 -1.3 1.3 91 0.5 WSW 11 13 6 7 - - 0.0
30/12:20am 2.5 -1.0 1.5 93 0.4 WSW 9 11 5 6 - - 0.0
30/12:10am 2.5 -0.9 1.6 94 0.4 WSW 9 11 5 6 - - 0.0
30/12:00am 2.5 -1.3 1.6 94 0.4 WSW 11 15 6 8 - - 0.0
 
Date/Time
EST
Temp
°C
App
Temp
°C
Dew
Point
°C
Rel
Hum
%
Delta-T
°C
Wind Press
QNH
hPa
Press
MSL
hPa
Rain since
9am
mm
Dir  Spd
km/h
Gust
km/h
Spd
kts
Gust
kts
29/11:50pm 2.5 -0.5 1.7 94 0.3 WSW 7 11 4 6 - - 0.0
29/11:40pm 2.5 -0.5 1.7 94 0.3 WSW 7 9 4 5 - - 0.0
29/11:30pm 2.5 -0.5 1.7 94 0.3 WSW 7 9 4 5 - - 0.0
29/11:20pm 2.5 -0.5 1.7 94 0.3 W 7 11 4 6 - - 0.0
29/11:10pm 2.5 -0.5 1.7 94 0.3 WSW 7 9 4 5 - - 0.0
29/11:00pm 2.5 -0.5 1.7 94 0.3 WSW 7 9 4 5 - - 0.0
29/10:50pm 2.5 -0.6 1.6 94 0.4 WNW 7 9 4 5 - - 0.0
29/10:40pm 2.5 -0.6 1.6 94 0.4 WNW 7 9 4 5 - - 0.0
29/10:30pm 2.5 -0.4 1.6 94 0.4 W 6 9 3 5 - - 0.0
29/10:20pm 2.5 -0.6 1.5 93 0.4 WSW 7 9 4 5 - - 0.0
29/10:10pm 2.6 -0.9 1.5 92 0.5 WSW 9 11 5 6 - - 0.0
29/10:00pm 2.6 -0.5 1.4 92 0.5 WSW 7 13 4 7 - - 0.0
29/09:50pm 2.6 -0.5 1.3 91 0.5 W 7 11 4 6 - - 0.0
29/09:40pm 2.5 -0.6 1.4 92 0.5 WSW 7 9 4 5 - - 0.0
29/09:30pm 2.5 -1.0 1.4 92 0.5 WSW 9 11 5 6 - - 0.0
29/09:20pm 2.4 -1.1 1.3 92 0.5 WSW 9 11 5 6 - - 0.0
29/09:10pm 2.3 -0.7 1.7 96 0.3 SW 7 9 4 5 - - 0.0
29/09:00pm 2.4 -0.7 1.6 94 0.3 WSW 7 9 4 5 - - 0.0
29/08:50pm 2.3 -0.6 1.6 95 0.3 SW 6 7 3 4 - - 0.0
29/08:40pm 2.3 -0.6 1.7 96 0.3 W 6 9 3 5 - - 0.0
29/08:30pm 2.2 -0.8 1.9 98 0.1 NW 7 9 4 5 - - 0.0
29/08:20pm 2.2 -0.8 2.1 99 0.0 NNW 7 9 4 5 - - 0.0
29/08:10pm 2.2 -0.6 2.2 100 0.0 N 6 9 3 5 - - 0.0
29/08:00pm 2.2 -0.6 2.2 100 0.0 W 6 7 3 4 - - 0.0
29/07:50pm 2.1 -0.7 2.1 100 0.0 WNW 6 9 3 5 - - 0.0
29/07:40pm 2.1 -0.7 2.1 100 0.0 WSW 6 6 3 3 - - 0.0
29/07:30pm 2.2 -0.6 2.2 100 0.0 WSW 6 7 3 4 - - 0.0
29/07:20pm 2.2 -0.6 2.2 100 0.0 WNW 6 6 3 3 - - 0.0
29/07:10pm 2.1 - 2.2 100 - W 6 6 3 3 - - 0.0
29/07:00pm 2.2 -0.2 2.2 100 0.0 WNW 4 6 2 3 - - 0.0
29/06:50pm 2.3 -0.1 2.3 100 0.0 W 4 6 2 3 - - 0.0
29/06:40pm 2.4 -0.3 2.4 100 0.0 WNW 6 6 3 3 - - 0.0
29/06:30pm 2.4 -0.3 2.4 100 0.0 NNW 6 7 3 4 - - 0.0
29/06:20pm 2.4 -0.3 2.4 100 0.0 N 6 7 3 4 - - 0.0
29/06:10pm 2.5 -0.2 2.5 100 0.0 WNW 6 7 3 4 - - 0.0
29/06:00pm 2.6 -0.3 2.6 100 0.0 NNW 7 7 4 4 - - 0.0
29/05:50pm 2.7 0.0 2.7 100 0.0 N 6 7 3 4 - - 0.0
29/05:40pm 2.7 -0.2 2.7 100 0.0 N 7 9 4 5 - - 0.0
29/05:30pm 2.8 0.1 2.8 100 0.0 NNW 6 9 3 5 - - 0.0
29/05:20pm 2.9 0.2 2.9 100 0.0 NNW 6 7 3 4 - - 0.0
29/05:10pm 3.0 0.2 2.9 99 0.0 NNW 7 11 4 6 - - 0.0
29/05:00pm 3.1 0.2 2.8 98 0.1 NNW 7 11 4 6 - - 0.0
29/04:50pm 3.2 0.5 2.6 96 0.3 NW 6 7 3 4 - - 0.0
29/04:40pm 3.3 0.4 2.5 94 0.3 NW 7 9 4 5 - - 0.0
29/04:30pm 3.5 0.7 2.2 91 0.6 WNW 6 7 3 4 - - 0.0
29/04:20pm 3.6 0.8 2.2 90 0.6 W 6 7 3 4 - - 0.0
29/04:10pm 3.7 0.7 2.2 90 0.7 W 7 11 4 6 - - 0.0
29/04:00pm 3.9 1.3 3.0 94 0.4 WNW 6 9 3 5 - - 0.0
29/03:50pm 4.2 1.4 3.1 92 0.5 NNW 7 9 4 5 - - 0.0
29/03:40pm 4.5 1.7 3.2 91 0.6 N 7 11 4 6 - - 0.0
29/03:30pm 4.8 2.0 3.0 88 0.8 NNW 7 9 4 5 - - 0.0
29/03:20pm 5.4 2.6 3.0 84 1.1 NNW 7 9 4 5 - - 0.0
29/03:10pm 5.8 3.1 2.9 82 1.3 WNW 6 7 3 4 - - 0.0
29/03:00pm 5.8 3.0 3.2 83 1.2 N 7 7 4 4 - - 0.0
29/02:50pm 6.1 3.5 3.4 83 1.2 WNW 6 7 3 4 - - 0.0
29/02:40pm 6.3 3.7 3.4 82 1.3 N 6 7 3 4 - - 0.0
29/02:30pm 6.7 4.2 3.6 80 1.4 N 6 7 3 4 - - 0.0
29/02:20pm 6.9 4.1 3.4 78 1.6 NNW 7 7 4 4 - - 0.0
29/02:10pm 7.7 5.0 3.5 75 1.9 NNW 7 9 4 5 - - 0.0
29/02:00pm 8.3 5.8 3.7 73 2.2 NNW 6 9 3 5 - - 0.0
29/01:50pm 8.4 5.9 3.7 72 2.2 NNW 6 7 3 4 - - 0.0
29/01:40pm 8.7 6.1 3.4 69 2.5 N 6 7 3 4 - - 0.0
29/01:30pm 8.3 5.8 3.7 73 2.2 NNW 6 7 3 4 - - 0.0
29/01:20pm 8.7 6.2 3.5 70 2.4 NNW 6 7 3 4 - - 0.0
29/01:10pm 8.7 6.2 3.6 70 2.4 NW 6 6 3 3 - - 0.0
29/01:00pm 8.3 5.7 3.3 71 2.3 NW 6 7 3 4 - - 0.0
29/12:50pm 8.2 5.6 3.3 71 2.3 NW 6 7 3 4 - - 0.0
29/12:40pm 9.0 6.4 3.2 67 2.7 WSW 6 9 3 5 - - 0.0
29/12:30pm 8.9 6.1 3.2 67 2.7 W 7 9 4 5 - - 0.0
29/12:20pm 8.1 5.6 3.5 73 2.1 W 6 6 3 3 - - 0.0
29/12:10pm 7.3 4.7 3.1 75 1.9 W 6 7 3 4 - - 0.0
29/12:00pm 6.2 3.5 2.8 79 1.5 NW 6 7 3 4 - - 0.0
29/11:50am 5.5 2.6 2.7 82 1.3 NW 7 9 4 5 - - 0.0
29/11:40am 5.3 2.4 2.7 83 1.2 NNW 7 9 4 5 - - 0.0
29/11:30am 5.7 3.0 2.9 82 1.3 W 6 7 3 4 - - 0.0
29/11:20am 5.6 2.9 2.8 82 1.3 NNW 6 7 3 4 - - 0.0
29/11:10am 5.6 2.7 2.6 81 1.3 NNW 7 11 4 6 - - 0.0
29/11:00am 4.9 2.0 2.5 84 1.1 NNW 7 9 4 5 - - 0.0
29/10:50am 5.2 2.5 2.5 83 1.2 NW 6 9 3 5 - - 0.0
29/10:40am 5.0 2.1 2.6 84 1.1 NW 7 7 4 4 - - 0.0
29/10:30am 5.2 2.5 2.7 84 1.1 W 6 7 3 4 - - 0.0
29/10:20am 5.4 2.7 2.9 84 1.1 W 6 7 3 4 - - 0.0
29/10:10am 5.2 2.5 2.7 84 1.1 W 6 7 3 4 - - 0.0
29/10:00am 5.0 2.1 2.8 86 1.0 WSW 7 7 4 4 - - 0.0
29/09:50am 4.3 1.4 2.5 88 0.8 WSW 7 9 4 5 - - 0.0
29/09:40am 4.2 1.2 2.3 87 0.8 WSW 7 9 4 5 - - 0.0
29/09:30am 4.3 1.3 2.3 87 0.9 WSW 7 9 4 5 - - 0.0
29/09:20am 3.7 0.7 2.2 90 0.7 WSW 7 9 4 5 - - 0.0
29/09:10am 3.2 0.2 2.2 93 0.4 WSW 7 9 4 5 - - 0.0
29/09:00am 2.8 -0.2 2.0 94 0.3 SW 7 9 4 5 - - 0.0
29/08:50am 2.5 -0.9 1.8 95 0.3 SW 9 9 5 5 - - 0.0
29/08:40am 2.3 -1.1 1.7 96 0.3 WSW 9 11 5 6 - - 0.0
29/08:30am 2.5 -0.9 1.7 94 0.3 WSW 9 11 5 6 - - 0.0
29/08:20am 2.2 -1.2 1.8 97 0.2 SW 9 11 5 6 - - 0.0
29/08:10am 2.0 -1.4 1.8 99 0.1 WSW 9 11 5 6 - - 0.0
29/08:00am 2.0 -1.8 1.7 98 0.1 WSW 11 11 6 6 - - 0.0
29/07:50am 2.1 -1.3 1.6 96 0.2 WSW 9 11 5 6 - - 0.0
29/07:40am 2.0 -1.8 1.5 96 0.2 WSW 11 11 6 6 - - 0.0
29/07:30am 1.8 -2.0 1.6 99 0.1 WSW 11 11 6 6 - - 0.0
29/07:20am 1.5 -2.0 1.5 100 0.0 WSW 9 11 5 6 - - 0.0
29/07:10am 1.4 -2.5 1.4 100 0.0 WSW 11 11 6 6 - - 0.0
29/07:00am 1.4 -2.1 1.4 100 0.0 WSW 9 13 5 7 - - 0.0
29/06:50am 1.5 -2.3 1.5 100 0.0 WSW 11 13 6 7 - - 0.0
29/06:40am 1.6 -2.2 1.6 100 0.0 WSW 11 13 6 7 - - 0.0
29/06:30am 1.6 - 1.7 100 - WSW 11 11 6 6 - - 0.0
29/06:20am 1.7 -2.1 1.7 100 0.0 WSW 11 13 6 7 - - 0.0
29/06:10am 1.7 -2.1 1.7 100 0.0 WSW 11 11 6 6 - - 0.0
29/06:00am 1.8 -2.0 1.8 100 0.0 WSW 11 11 6 6 - - 0.0
29/05:50am 1.9 -1.9 1.7 99 0.1 WSW 11 13 6 7 - - 0.0
29/05:40am 1.8 -1.6 1.7 99 0.0 WSW 9 11 5 6 - - 0.0
29/05:30am 1.8 -1.6 1.8 100 0.0 WSW 9 11 5 6 - - 0.0
29/05:20am 1.9 -1.5 1.8 99 0.0 WSW 9 11 5 6 - - 0.0
29/05:10am 1.8 -1.6 1.8 100 0.0 WSW 9 11 5 6 - - 0.0
29/05:00am 1.8 -2.0 1.8 100 0.0 WSW 11 11 6 6 - - 0.0
29/04:50am 1.7 -1.7 1.7 100 0.0 WSW 9 11 5 6 - - 0.0
29/04:40am 1.7 -1.7 1.6 99 0.0 WSW 9 11 5 6 - - 0.0
29/04:30am 1.8 -1.7 1.5 98 0.1 WSW 9 11 5 6 - - 0.0
29/04:20am 1.7 -1.8 1.5 99 0.1 WSW 9 11 5 6 - - 0.0
29/04:10am 1.6 -1.9 1.4 99 0.1 WSW 9 11 5 6 - - 0.0
29/04:00am 1.5 -2.0 1.3 99 0.1 WSW 9 11 5 6 - - 0.0
29/03:50am 1.5 -2.0 1.2 98 0.1 WSW 9 11 5 6 - - 0.0
29/03:40am 1.5 -2.0 1.0 96 0.2 WSW 9 9 5 5 - - 0.0
29/03:30am 1.5 -2.1 0.8 95 0.3 WSW 9 11 5 6 - - 0.0
29/03:20am 1.6 -2.0 0.6 93 0.4 WSW 9 11 5 6 - - 0.0
29/03:00am 1.5 -2.2 0.2 91 0.5 WSW 9 9 5 5 - - 0.0
29/02:50am 1.5 -1.8 0.0 90 0.6 WSW 7 9 4 5 - - 0.0
29/02:40am 1.5 -2.2 -0.3 88 0.7 WSW 9 9 5 5 - - 0.0
29/02:30am 1.5 -2.3 -0.8 85 0.9 WSW 9 11 5 6 - - 0.0
29/02:20am 1.4 -2.4 -1.0 84 0.9 WSW 9 9 5 5 - - 0.0
29/02:10am 1.5 -2.4 -1.5 80 1.2 WSW 9 9 5 5 - - 0.0
29/02:00am 1.6 -2.4 -2.5 74 1.5 WSW 9 9 5 5 - - 0.0
29/01:50am 1.2 -2.9 -2.8 75 1.6 W 9 11 5 6 - - 0.0
29/01:40am 1.1 -2.7 -1.1 85 0.9 WSW 9 9 5 5 - - 0.0
29/01:30am 1.1 -2.3 -0.8 87 0.7 W 7 9 4 5 - - 0.0
29/01:20am 1.2 -2.2 -0.6 88 0.7 W 7 9 4 5 - - 0.0
29/01:10am 1.4 -2.4 -0.5 87 0.8 W 9 9 5 5 - - 0.0
29/01:00am 1.1 -2.3 -0.5 89 0.6 W 7 7 4 4 - - 0.0
29/12:50am 1.1 -2.3 -0.6 88 0.7 W 7 7 4 4 - - 0.0
29/12:40am 1.4 -2.0 -0.7 86 0.8 W 7 9 4 5 - - 0.0
29/12:30am 1.4 -1.8 -0.5 87 0.8 W 6 7 3 4 - - 0.0
29/12:20am 1.5 -1.9 -0.8 85 0.9 W 7 9 4 5 - - 0.0
29/12:10am 1.2 -2.2 -0.7 87 0.7 W 7 7 4 4 - - 0.0
29/12:00am 1.1 -2.4 -1.5 83 1.0 W 7 9 4 5 - - 0.0
 
Date/Time
EST
Temp
°C
App
Temp
°C
Dew
Point
°C
Rel
Hum
%
Delta-T
°C
Wind Press
QNH
hPa
Press
MSL
hPa
Rain since
9am
mm
Dir  Spd
km/h
Gust
km/h
Spd
kts
Gust
kts
28/11:50pm 1.1 -2.4 -1.4 83 1.0 W 7 9 4 5 - - 0.0
28/11:40pm 1.1 -2.4 -1.2 85 0.9 W 7 7 4 4 - - 0.0
28/11:30pm 1.2 -2.3 -1.0 85 0.9 W 7 7 4 4 - - 0.0
28/11:20pm 1.2 -2.0 -0.5 88 0.7 W 6 6 3 3 - - 0.0
28/11:10pm 1.2 -2.1 -1.2 84 0.9 W 6 7 3 4 - - 0.0
28/11:00pm 1.3 -2.1 -2.0 79 1.3 W 6 6 3 3 - - 0.0
28/10:50pm 1.3 -2.1 -2.2 77 1.4 WSW 6 7 3 4 - - 0.0
28/10:40pm 1.4 -2.0 -1.9 79 1.3 W 6 6 3 3 - - 0.0
28/10:30pm 1.9 -1.0 -0.9 82 1.1 W 4 6 2 3 - - 0.0
28/10:20pm 2.3 -1.0 -1.5 76 1.5 WNW 6 6 3 3 - - 0.0
28/10:10pm 2.3 -1.0 -1.3 77 1.4 WNW 6 7 3 4 - - 0.0
28/10:00pm 2.1 -1.1 -3.2 68 2.0 WNW 4 6 2 3 - - 0.0
28/09:50pm 2.1 -0.7 -3.4 67 2.0 N 2 2 1 1 - - 0.0
28/09:40pm 2.2 -0.5 -2.3 72 1.7 N 2 4 1 2 - - 0.0
28/09:30pm 2.6 -0.5 -2.5 69 1.9 NNE 4 4 2 2 - - 0.0
28/09:20pm 2.6 -0.5 -2.5 69 1.9 NNE 4 4 2 2 - - 0.0
28/09:10pm 2.6 -0.5 -2.4 69 1.9 N 4 4 2 2 - - 0.0
28/09:00pm 2.6 -0.2 -3.1 66 2.1 N 2 4 1 2 - - 0.0
28/08:50pm 2.8 -0.1 -4.0 61 2.5 NE 2 4 1 2 - - 0.0
28/08:40pm 3.0 -0.5 -3.1 64 2.3 ENE 6 7 3 4 - - 0.0
28/08:30pm 2.9 -0.7 -3.6 62 2.4 ENE 6 7 3 4 - - 0.0
28/08:20pm 2.7 -1.0 -4.3 60 2.5 ENE 6 7 3 4 - - 0.0
28/08:10pm 2.8 -0.9 -4.9 57 2.8 ENE 6 6 3 3 - - 0.0
28/08:00pm 2.7 -1.2 -6.8 49 3.4 ENE 6 6 3 3 - - 0.0
28/07:50pm 2.5 -1.2 -4.8 58 2.8 ENE 6 6 3 3 - - 0.0
28/07:40pm 2.4 -1.0 -5.3 57 2.9 N 4 6 2 3 - - 0.0
28/07:30pm 2.5 -0.8 -4.4 60 2.5 NNW 4 4 2 2 - - 0.0
28/07:20pm 2.6 -0.7 -4.4 60 2.5 N 4 6 2 3 - - 0.0
28/07:10pm 2.3 -1.4 -4.3 62 2.5 NE 6 6 3 3 - - 0.0
28/07:00pm 2.2 -1.4 -3.9 64 2.4 ENE 6 6 3 3 - - 0.0
28/06:50pm 2.0 -0.9 -3.8 65 2.2 ENE 2 6 1 3 - - 0.0
28/06:40pm 2.0 -0.8 -3.2 68 1.9 ENE 2 4 1 2 - - 0.0
28/06:30pm 2.0 -1.1 -2.9 70 1.8 ESE 4 4 2 2 - - 0.0
28/06:20pm 1.9 -0.9 -3.3 68 2.0 ESE 2 4 1 2 - - 0.0
28/06:10pm 2.0 -0.8 -3.0 69 1.9 E 2 2 1 1 - - 0.0
28/06:00pm 2.3 -0.8 -3.0 68 2.0 SSE 4 6 2 3 - - 0.0
28/05:50pm 2.3 -0.8 -3.0 68 2.0 SSE 4 4 2 2 - - 0.0
28/05:40pm 2.2 -0.9 -2.7 70 1.8 SE 4 6 2 3 - - 0.0
28/05:30pm 2.4 -0.6 -2.2 71 1.8 E 4 4 2 2 - - 0.0
28/05:20pm 2.7 0.0 -2.4 69 1.9 ESE 2 4 1 2 - - 0.0
28/05:10pm 2.8 0.1 -2.5 68 2.0 SE 2 4 1 2 - - 0.0
28/05:00pm 3.3 0.7 -1.8 69 2.0 SSW 2 4 1 2 - - 0.0
28/04:50pm 3.8 1.3 -0.7 72 1.8 WSW 2 4 1 2 - - 0.0
28/04:40pm 4.5 2.0 -1.1 67 2.3 WSW 2 4 1 2 - - 0.0
28/04:30pm 5.1 2.3 -0.4 67 2.3 W 4 4 2 2 - - 0.0
28/04:20pm 5.9 3.1 -0.5 63 2.7 W 4 4 2 2 - - 0.0
28/04:00pm 7.2 4.6 -1.6 53 3.6 WSW 2 4 1 2 - - 0.0
28/03:50pm 7.2 4.3 -0.8 57 3.3 W 4 6 2 3 - - 0.0
28/03:40pm 7.5 4.6 -1.4 53 3.7 WNW 4 4 2 2 - - 0.0
28/03:30pm 7.9 4.9 -1.5 51 3.9 W 4 6 2 3 - - 0.0
28/03:20pm 8.3 4.9 -1.8 49 4.2 WSW 6 6 3 3 - - 0.0
28/03:10pm 8.4 5.5 -1.0 51 4.0 W 4 6 2 3 - - 0.0
28/03:00pm 8.4 5.5 -1.3 50 4.1 WNW 4 6 2 3 - - 0.0
28/02:50pm 8.6 5.2 -1.8 48 4.3 WNW 6 7 3 4 - - 0.0
28/02:40pm 8.9 5.9 -1.5 48 4.3 W 4 6 2 3 - - 0.0
28/02:30pm 8.7 5.6 -2.3 46 4.5 NW 4 6 2 3 - - 0.0
28/02:20pm 8.7 5.7 -2.1 46 4.4 WNW 4 6 2 3 - - 0.0
28/02:10pm 8.7 5.7 -1.8 47 4.3 NW 4 6 2 3 - - 0.0
28/02:00pm 8.9 6.0 -1.3 49 4.3 W 4 6 2 3 - - 0.0
28/01:50pm 8.6 5.6 -1.6 48 4.2 NNW 4 6 2 3 - - 0.0
28/01:30pm 8.9 5.9 -1.9 46 4.5 NW 4 6 2 3 - - 0.0
28/01:20pm 9.1 6.3 -0.7 50 4.2 NW 4 6 2 3 - - 0.0
28/01:10pm 8.8 5.8 -1.5 48 4.3 WNW 4 6 2 3 - - 0.0
28/01:00pm 8.5 5.2 -1.6 49 4.2 NW 6 7 3 4 - - 0.0
28/12:50pm 8.5 5.0 -2.6 45 4.5 NW 6 6 3 3 - - 0.0
28/12:40pm 8.4 5.0 -2.1 47 4.3 NW 6 7 3 4 - - 0.0
28/12:30pm 8.9 5.8 -2.4 45 4.6 WNW 4 6 2 3 - - 0.0
28/12:20pm 8.6 5.5 -2.6 45 4.5 NW 4 6 2 3 - - 0.0
28/12:10pm 8.2 5.1 -2.6 46 4.4 WNW 4 6 2 3 - - 0.0
28/12:00pm 7.6 4.4 -3.9 44 4.5 WNW 4 6 2 3 - - 0.0
28/11:50am 6.9 3.8 -2.4 51 3.7 WNW 4 6 2 3 - - 0.0
28/11:40am 6.8 3.6 -3.2 49 3.9 WNW 4 6 2 3 - - 0.0
28/11:30am 6.6 3.4 -3.5 48 3.9 WNW 4 6 2 3 - - 0.0
28/11:20am 6.4 3.3 -2.6 52 3.6 NW 4 6 2 3 - - 0.0
28/11:10am 6.1 2.7 -5.5 43 4.3 NNE 4 4 2 2 - - 0.0
28/11:00am 6.1 2.8 -4.4 47 4.0 ENE 4 4 2 2 - - 0.0
28/10:50am 5.9 2.5 -5.5 44 4.2 ENE 4 4 2 2 - - 0.0
28/10:40am 5.4 2.3 -5.9 44 4.1 E 2 4 1 2 - - 0.0
28/10:30am 5.1 1.8 -8.1 38 4.5 E 2 4 1 2 - - 0.0
28/10:20am 4.7 1.2 -6.4 44 3.9 E 4 6 2 3 - - 0.0
28/10:10am 4.8 1.3 -6.1 45 3.9 E 4 6 2 3 - - 0.0
28/10:00am 4.8 1.2 -7.5 40 4.2 E 4 6 2 3 - - 0.0
28/09:50am 4.7 1.0 -8.7 37 4.5 E 4 6 2 3 - - 0.0
28/09:40am 4.3 0.6 -9.0 37 4.6 E 4 6 2 3 - - 0.0
28/09:30am 4.0 -0.1 -8.6 39 4.4 E 6 6 3 3 - - 0.0
28/09:20am 4.0 -0.1 -9.0 38 4.5 ENE 6 6 3 3 - - 0.0
28/09:10am 4.3 0.2 -8.5 39 4.3 E 6 7 3 4 - - 0.0
28/09:00am 4.6 1.4 -6.7 43 4.0 E 2 4 1 2 - - 0.0
28/08:50am 4.0 1.0 -5.1 51 3.3 E 2 4 1 2 - - 0.0
28/08:40am 4.0 0.5 -6.3 47 3.6 E 4 4 2 2 - - 0.0
28/08:30am 3.4 0.7 -6.2 49 3.4 CALM 0 2 0 1 - - 0.0
28/08:20am 2.3 -1.3 -7.2 49 3.3 E 4 6 2 3 - - 0.0
28/08:10am 1.9 -1.2 -6.4 54 3.0 E 2 6 1 3 - - 0.0
28/08:00am 1.1 -2.8 -6.4 57 2.6 E 6 7 3 4 - - 0.0
28/07:50am 0.7 -3.2 -6.6 58 2.5 E 6 7 3 4 - - 0.0
28/07:40am 0.4 -3.8 -7.3 56 2.6 E 7 9 4 5 - - 0.0
28/07:30am -0.1 -4.3 -8.0 55 2.5 E 7 7 4 4 - - 0.0
28/07:20am -0.3 -4.4 -9.0 52 2.7 ENE 6 7 3 4 - - 0.0
28/07:10am -0.5 -4.7 -9.6 50 2.8 ENE 6 6 3 3 - - 0.0
28/07:00am -0.7 -4.8 -9.3 52 2.6 ENE 6 7 3 4 - - 0.0
28/06:50am -0.8 -4.9 -7.1 62 2.0 ENE 7 7 4 4 - - 0.0
28/06:40am -1.0 -5.0 -7.9 59 2.2 ENE 6 7 3 4 - - 0.0
28/06:30am -1.3 -5.0 -8.0 60 2.1 ENE 4 4 2 2 - - 0.0
28/06:20am -1.7 -5.3 -6.9 67 1.6 E 4 6 2 3 - - 0.0
28/06:10am -1.9 -5.0 -6.5 71 1.4 ESE 2 4 1 2 - - 0.0
28/06:00am -1.8 -5.3 -5.9 73 1.3 E 4 6 2 3 - - 0.0
28/05:50am -1.5 -5.3 -5.7 73 1.3 E 6 7 3 4 - - 0.0
28/05:40am -1.2 -5.1 -6.1 69 1.6 ENE 6 7 3 4 - - 0.0
28/05:30am -1.1 -4.7 -7.6 61 2.0 NE 4 6 2 3 - - 0.0
28/05:20am -1.8 -5.0 -7.0 67 1.6 ENE 2 4 1 2 - - 0.0
28/05:10am -2.1 -4.8 -5.7 76 1.1 CALM 0 2 0 1 - - 0.0
28/05:00am -2.0 -5.4 -5.1 79 1.0 E 4 6 2 3 - - 0.0
28/04:50am -1.8 -4.5 -5.5 76 1.2 CALM 0 0 0 0 - - 0.0
28/04:40am -1.8 -4.9 -6.4 71 1.4 SSW 2 2 1 1 - - 0.0
28/04:30am -2.0 -5.1 -5.9 75 1.2 SW 2 4 1 2 - - 0.0
28/04:20am -1.9 -4.9 -5.2 78 1.0 S 2 4 1 2 - - 0.0
28/04:10am -2.0 -5.4 -5.5 77 1.1 SW 4 4 2 2 - - 0.0
28/04:00am -2.1 -5.1 -5.2 79 1.0 SW 2 4 1 2 - - 0.0
28/03:50am -2.4 -5.4 -4.8 83 0.7 WSW 2 6 1 3 - - 0.0
28/03:40am -2.5 -5.8 -4.5 86 0.6 SW 4 4 2 2 - - 0.0
28/03:30am -2.4 -5.4 -4.8 83 0.7 SW 2 4 1 2 - - 0.0
28/03:20am -2.6 -5.6 -4.8 85 0.6 S 2 4 1 2 - - 0.0
28/03:10am -2.6 -5.6 -4.7 85 0.6 SE 2 4 1 2 - - 0.0
28/03:00am -2.7 -5.3 -4.6 87 0.5 CALM 0 2 0 1 - - 0.0
28/02:50am -2.5 -5.1 -4.7 85 0.6 CALM 0 2 0 1 - - 0.0
28/02:40am -2.3 -4.9 -4.9 82 0.8 CALM 0 2 0 1 - - 0.0
28/02:30am -2.5 -5.4 -4.5 86 0.6 S 2 4 1 2 - - 0.0
28/02:20am -2.7 -5.6 -4.0 91 0.3 SE 2 4 1 2 - - 0.0
28/02:10am -2.6 -5.5 -4.1 89 0.4 SSW 2 4 1 2 - - 0.0
28/02:00am -2.6 -5.5 -3.8 91 0.3 SSE 2 6 1 3 - - 0.0
28/01:50am -2.5 -5.3 -3.7 91 0.3 SE 2 6 1 3 - - 0.0
28/01:40am -2.6 -5.8 -3.7 92 0.3 - 4 7 2 4 - - 0.0
28/01:30am -2.6 -5.4 -3.6 93 0.2 S 2 2 1 1 - - 0.0
28/01:20am -2.5 -5.3 -3.5 93 0.2 SE 2 4 1 2 - - 0.0
28/01:10am -2.4 -5.2 -3.2 94 0.2 SE 2 4 1 2 - - 0.0
28/01:00am -2.4 -5.2 -3.1 95 0.1 SE 2 4 1 2 - - 0.0
28/12:50am -2.3 -5.1 -3.1 94 0.2 ESE 2 4 1 2 - - 0.0
28/12:40am -2.2 -5.0 -3.2 93 0.3 E 2 6 1 3 - - 0.0
28/12:30am -2.2 -5.4 -3.3 92 0.3 E 4 6 2 3 - - 0.0
28/12:20am -2.3 -5.1 -3.2 94 0.2 SSE 2 4 1 2 - - 0.0
28/12:10am -2.2 -4.6 -3.5 91 0.4 CALM 0 2 0 1 - - 0.0
28/12:00am -2.4 -5.2 -3.3 93 0.2 SSW 2 4 1 2 - - 0.0
 
Date/Time
EST
Temp
°C
App
Temp
°C
Dew
Point
°C
Rel
Hum
%
Delta-T
°C
Wind Press
QNH
hPa
Press
MSL
hPa
Rain since
9am
mm
Dir  Spd
km/h
Gust
km/h
Spd
kts
Gust
kts
27/11:50pm -2.3 -5.5 -3.2 94 0.2 WSW 4 4 2 2 - - 0.0
27/11:40pm -2.3 -5.4 -3.0 95 0.1 SW 4 6 2 3 - - 0.0
27/11:30pm -2.3 -5.0 -2.8 96 0.1 S 2 4 1 2 - - 0.0
27/11:20pm -2.1 -4.8 -2.8 95 0.2 SE 2 4 1 2 - - 0.0
27/11:10pm -2.0 -4.7 -2.7 95 0.2 SSE 2 6 1 3 - - 0.0
27/11:00pm -1.9 -5.0 -2.9 93 0.3 SW 4 6 2 3 - - 0.0
27/10:50pm -1.9 -4.7 -2.9 93 0.3 WSW 2 4 1 2 - - 0.0
27/10:40pm -1.9 -5.0 -3.0 92 0.3 SSW 4 6 2 3 - - 0.0
27/10:30pm -2.0 -5.1 -3.0 93 0.3 SW 4 4 2 2 - - 0.0
27/10:20pm -2.0 -5.1 -3.0 93 0.3 E 4 7 2 4 - - 0.0
27/10:10pm -1.9 -5.1 -3.4 89 0.4 W 4 6 2 3 - - 0.0
27/10:00pm -2.1 -4.9 -3.2 92 0.3 SSE 2 6 1 3 - - 0.0
27/09:50pm -1.9 -4.3 -3.3 90 0.4 CALM 0 2 0 1 - - 0.0
27/09:40pm -1.6 -4.5 -3.8 85 0.7 S 2 4 1 2 - - 0.0
27/09:30pm -1.7 -4.5 -3.7 86 0.6 SSW 2 4 1 2 - - 0.0
27/09:20pm -1.6 -4.4 -3.7 85 0.7 SSW 2 4 1 2 - - 0.0
27/09:10pm -1.4 -4.3 -3.8 84 0.8 SW 2 4 1 2 - - 0.0
27/09:00pm -1.1 -4.0 -4.3 79 1.1 S 2 4 1 2 - - 0.0
27/08:50pm -1.1 -4.0 -4.3 79 1.1 SSW 2 4 1 2 - - 0.0
27/08:40pm -1.0 -3.9 -4.4 78 1.1 W 2 2 1 1 - - 0.0
27/08:30pm -0.8 -3.7 -4.5 76 1.3 SSW 2 4 1 2 - - 0.0
27/08:20pm -1.0 -3.9 -4.6 76 1.2 S 2 6 1 3 - - 0.0
27/08:10pm -1.1 -4.0 -4.0 81 1.0 E 2 6 1 3 - - 0.0
27/08:00pm -0.8 -4.1 -4.4 76 1.2 WSW 4 6 2 3 - - 0.0
27/07:50pm -0.6 -3.9 -4.4 75 1.3 WNW 4 4 2 2 - - 0.0

Latest Capital City Observations: Canberra | Sydney | Melbourne | Brisbane | Adelaide | Perth | Hobart | Darwin

Other formats

Comma delimited format used in spreadsheet applications
http://www.bom.gov.au/fwo/IDN60903/IDN60903.99145.axf

JavaScript Object Notation format (JSON) in row-major order
http://www.bom.gov.au/fwo/IDN60903/IDN60903.99145.json

Data quality

Most of these data are generated automatically and are frequently updated. Quality checks on data are not normally performed. It is possible for incorrect values to appear. Refer to information at About Latest Weather Observations and please check the disclaimer before using these data.